Time;durP1;ratioP1;P1;durP2;ratioP2;P2;SDS_P1;SDS_P2;PMS_P1;PMS_P2;Temp;Humidity;BMP_temperature;BMP_pressure;BME280_temperature;BME280_humidity;BME280_pressure;Samples;Min_cycle;Max_cycle;Signal;HPM_P1;HPM_P2
2021/12/30 00:01:48;;;;;;;;;0.00;0.00;;;;;14.74;77.55;101283.09;5019772;27;47186;-87
2021/12/30 00:04:14;;;;;;;;;0.00;0.00;;;;;14.75;77.35;101279.59;5036574;28;45692;-87
2021/12/30 00:06:40;;;;;;;;;0.00;0.00;;;;;14.51;77.43;101234.16;5020379;27;45552;-88
2021/12/30 00:09:14;;;;;;;;;0.00;0.00;;;;;14.35;77.23;101213.22;5032078;28;45440;-88
2021/12/30 00:11:41;;;;;;;;;0.00;0.00;;;;;14.04;77.04;101168.69;5022573;28;47731;-89
2021/12/30 00:14:07;;;;;;;;;0.00;0.00;;;;;14.73;77.83;101290.06;5035794;28;45618;-88
2021/12/30 00:16:32;;;;;;;;;0.00;0.00;;;;;14.86;77.71;101322.47;5022695;28;45353;-88
2021/12/30 00:18:58;;;;;;;;;0.00;0.00;;;;;14.66;77.66;101299.69;5037640;27;45327;-88
2021/12/30 00:21:23;;;;;;;;;0.00;0.00;;;;;14.47;77.59;101262.13;5056103;28;47215;-89
2021/12/30 00:23:49;;;;;;;;;0.00;0.00;;;;;14.64;77.48;101282.22;5027229;28;45437;-88
2021/12/30 00:26:15;;;;;;;;;0.00;0.00;;;;;14.66;77.88;101294.47;5024297;28;45457;-85
2021/12/30 00:28:40;;;;;;;;;0.00;0.00;;;;;14.35;77.44;101236.81;5039289;28;45632;-89
2021/12/30 00:31:06;;;;;;;;;0.00;0.00;;;;;14.51;77.73;101270.84;5027256;28;47362;-89
2021/12/30 00:33:34;;;;;;;;;0.00;0.00;;;;;14.26;77.87;101228.91;5062461;27;45120;-88
2021/12/30 00:36:02;;;;;;;;;0.00;0.00;;;;;13.84;77.67;101161.69;5040256;28;45423;-89
2021/12/30 00:38:27;;;;;;;;;0.00;0.00;;;;;14.24;77.74;101221.06;5107503;27;45507;-89
2021/12/30 00:40:53;;;;;;;;;0.00;0.00;;;;;14.86;77.77;101325.06;5040620;28;45456;-89
2021/12/30 00:43:18;;;;;;;;;0.00;0.00;;;;;14.73;77.66;101299.69;5019656;28;45457;-89
2021/12/30 00:45:44;;;;;;;;;0.00;0.00;;;;;14.34;77.41;101245.53;5020125;28;45711;-89
2021/12/30 00:48:10;;;;;;;;;0.00;0.00;;;;;14.74;77.68;101309.31;5037131;28;45573;-89
2021/12/30 00:50:37;;;;;;;;;0.50;0.00;;;;;14.95;77.41;101334.69;5109317;27;48264;-89
2021/12/30 00:53:08;;;;;;;;;0.00;0.00;;;;;14.52;77.34;101257.75;5020765;28;46170;-89
2021/12/30 00:55:34;;;;;;;;;0.00;0.00;;;;;14.74;77.28;101304.06;5033727;28;45688;-88
2021/12/30 00:58:00;;;;;;;;;0.00;0.00;;;;;14.82;77.52;101320.69;5036021;28;45312;-89
2021/12/30 01:00:26;;;;;;;;;0.00;0.00;;;;;14.55;77.55;101277.88;5039015;28;45511;-88
2021/12/30 01:02:52;;;;;;;;;0.00;0.00;;;;;14.02;77.65;101192.25;5039459;28;45409;-88
2021/12/30 01:05:17;;;;;;;;;0.00;0.00;;;;;14.47;77.34;101272.59;5040170;28;45399;-87
2021/12/30 01:07:43;;;;;;;;;0.00;0.00;;;;;14.32;77.35;101252.50;5039280;28;45471;-88
2021/12/30 01:10:12;;;;;;;;;0.00;0.00;;;;;14.91;77.80;101353.88;5021019;28;47217;-86
2021/12/30 01:12:38;;;;;;;;;0.00;0.00;;;;;14.72;77.41;101321.53;5038093;28;45487;-86
2021/12/30 01:15:09;;;;;;;;;0.00;0.00;;;;;14.56;77.50;101303.19;5020263;28;45409;-86
2021/12/30 01:17:49;;;;;;;;;0.00;0.00;;;;;14.79;77.19;101357.38;5039426;27;45345;-87
2021/12/30 01:20:17;;;;;;;;;0.00;0.00;;;;;14.49;77.63;101301.44;5036934;27;46968;-86
2021/12/30 01:22:43;;;;;;;;;0.00;0.00;;;;;14.68;77.36;101332.00;5020197;28;45297;-86
2021/12/30 01:25:11;;;;;;;;;0.00;0.00;;;;;14.51;77.82;101312.75;5037478;28;45616;-86
2021/12/30 01:27:40;;;;;;;;;0.00;0.00;;;;;14.52;77.89;101335.50;5038598;28;45309;-86
2021/12/30 01:30:08;;;;;;;;;0.00;0.00;;;;;14.28;77.51;101288.28;5037685;28;45527;-86
2021/12/30 01:32:34;;;;;;;;;0.00;0.00;;;;;14.85;78.00;101386.22;5037999;28;45522;-86
2021/12/30 01:35:00;;;;;;;;;0.00;0.00;;;;;14.73;78.36;101368.69;5124169;27;45432;-86
2021/12/30 01:37:26;;;;;;;;;0.00;0.00;;;;;14.61;78.23;101355.59;5038387;28;45554;-86
2021/12/30 01:39:53;;;;;;;;;0.00;0.00;;;;;14.89;78.35;101402.84;5037396;28;45359;-85
2021/12/30 01:42:19;;;;;;;;;0.00;0.00;;;;;14.54;78.51;101346.81;5040891;28;45412;-85
2021/12/30 01:44:44;;;;;;;;;0.00;0.00;;;;;14.70;78.65;101389.66;5040013;28;45408;-84
2021/12/30 01:47:10;;;;;;;;;0.00;0.00;;;;;14.35;78.38;101325.84;5040695;28;45287;-85
2021/12/30 01:49:35;;;;;;;;;0.00;0.00;;;;;14.55;78.48;101366.94;5022846;28;46248;-86
2021/12/30 01:52:01;;;;;;;;;0.00;0.00;;;;;14.67;79.03;101392.28;5042550;28;45468;-85
2021/12/30 01:54:27;;;;;;;;;0.00;0.00;;;;;14.66;78.73;101387.91;5049012;27;45419;-84
2021/12/30 01:56:56;;;;;;;;;0.25;0.00;;;;;14.19;78.82;101304.84;5042857;28;45404;-84
2021/12/30 01:59:23;;;;;;;;;0.00;0.00;;;;;14.53;78.77;101356.44;5040745;28;45465;-84
2021/12/30 02:01:56;;;;;;;;;0.00;0.00;;;;;14.76;78.61;101401.91;5041008;28;45476;-84
2021/12/30 02:04:22;;;;;;;;;0.00;0.00;;;;;14.63;78.69;101374.78;5041171;28;45448;-84
2021/12/30 02:06:48;;;;;;;;;0.00;0.00;;;;;14.67;78.52;101382.66;5110093;27;45299;-86
2021/12/30 02:09:15;;;;;;;;;0.00;0.00;;;;;14.53;79.11;101366.03;5040541;28;45614;-84
2021/12/30 02:11:41;;;;;;;;;0.00;0.00;;;;;14.47;78.77;101351.19;5040682;28;45388;-84
2021/12/30 02:14:06;;;;;;;;;0.00;0.00;;;;;14.40;78.77;101344.19;5040409;28;45514;-84
2021/12/30 02:16:32;;;;;;;;;0.00;0.00;;;;;14.61;79.12;101376.56;5109965;27;45636;-85
2021/12/30 02:18:57;;;;;;;;;0.00;0.00;;;;;14.56;79.04;101381.78;5003307;28;47488;-85
2021/12/30 02:21:23;;;;;;;;;0.00;0.00;;;;;14.50;78.88;101379.13;5020706;28;45379;-85
2021/12/30 02:23:48;;;;;;;;;0.00;0.00;;;;;14.85;79.16;101427.28;5020899;28;45687;-84
2021/12/30 02:26:17;;;;;;;;;0.00;0.00;;;;;14.85;79.22;101430.78;5020303;28;45420;-85
2021/12/30 02:28:43;;;;;;;;;0.00;0.00;;;;;14.53;79.12;101376.53;5019593;28;46169;-86
2021/12/30 02:31:12;;;;;;;;;0.00;0.00;;;;;14.68;79.08;101404.50;5020068;28;45613;-86
2021/12/30 02:33:39;;;;;;;;;0.00;0.00;;;;;14.85;79.35;101440.41;5020454;27;45486;-86
2021/12/30 02:36:04;;;;;;;;;0.00;0.00;;;;;14.54;78.94;101384.38;5020312;28;45633;-85
2021/12/30 02:38:30;;;;;;;;;0.00;0.00;;;;;14.64;79.28;101405.38;5019822;28;46290;-86
2021/12/30 02:40:58;;;;;;;;;0.00;0.00;;;;;14.90;78.92;101438.66;5020324;28;45380;-86
2021/12/30 02:43:26;;;;;;;;;0.00;0.00;;;;;14.76;79.08;101428.97;5002679;28;45551;-86
2021/12/30 02:45:54;;;;;;;;;0.00;0.00;;;;;14.34;78.95;101366.00;5019832;28;45481;-86
2021/12/30 02:48:24;;;;;;;;;0.00;0.00;;;;;14.59;78.95;101421.09;5020264;28;46563;-86
2021/12/30 02:50:52;;;;;;;;;0.00;0.00;;;;;14.53;78.79;101397.47;5019893;28;45708;-86
2021/12/30 02:53:17;;;;;;;;;0.00;0.00;;;;;14.52;78.68;101406.22;5035567;28;45453;-86
2021/12/30 02:55:44;;;;;;;;;0.00;0.00;;;;;14.76;78.80;101464.81;5002638;28;45454;-86
2021/12/30 02:58:10;;;;;;;;;0.00;0.00;;;;;14.39;78.83;101392.19;5002067;28;47311;-85
2021/12/30 03:00:36;;;;;;;;;0.00;0.00;;;;;14.44;78.87;101409.69;5019985;28;45383;-85
2021/12/30 03:03:02;;;;;;;;;0.00;0.00;;;;;14.49;78.62;101422.78;5020055;28;45468;-85
2021/12/30 03:05:28;;;;;;;;;0.00;0.00;;;;;14.47;78.85;101411.44;5002699;28;45519;-85
2021/12/30 03:07:54;;;;;;;;;0.00;0.00;;;;;14.41;78.75;101398.31;5018631;28;47314;-86
2021/12/30 03:10:22;;;;;;;;;0.00;0.00;;;;;14.39;78.58;101392.19;5036435;28;45393;-87
2021/12/30 03:12:53;;;;;;;;;0.00;0.00;;;;;14.69;78.29;101435.97;5044719;27;44798;-86
2021/12/30 03:15:19;;;;;;;;;0.00;0.00;;;;;14.87;78.47;101455.25;5048748;28;45172;-86
2021/12/30 03:17:44;;;;;;;;;0.00;0.00;;;;;14.22;78.08;101347.63;5024083;27;47261;-85
2021/12/30 03:20:10;;;;;;;;;0.00;0.00;;;;;14.61;77.93;101427.19;5008190;28;45438;-84
2021/12/30 03:22:37;;;;;;;;;0.00;0.00;;;;;14.62;78.35;101421.09;5020112;28;45342;-85
2021/12/30 03:25:05;;;;;;;;;0.00;0.00;;;;;14.87;78.14;101452.63;5002224;28;45513;-84
2021/12/30 03:27:30;;;;;;;;;0.00;0.00;;;;;14.42;78.15;101384.34;5001912;28;48228;-85
2021/12/30 03:29:56;;;;;;;;;0.00;0.00;;;;;14.41;78.00;101393.09;5019496;28;45501;-85
2021/12/30 03:32:21;;;;;;;;;0.00;0.00;;;;;14.88;78.00;101467.47;5027673;28;45278;-85
2021/12/30 03:34:47;;;;;;;;;0.00;0.00;;;;;14.63;77.97;101428.06;5109140;27;45444;-86
2021/12/30 03:37:12;;;;;;;;;0.00;0.00;;;;;14.80;77.73;101451.72;5108710;27;47054;-85
2021/12/30 03:39:38;;;;;;;;;0.00;0.00;;;;;14.94;77.54;101464.88;5039185;28;45303;-85
2021/12/30 03:42:04;;;;;;;;;0.00;0.00;;;;;14.35;77.56;101359.00;5039478;28;45500;-86
2021/12/30 03:44:29;;;;;;;;;0.25;0.00;;;;;14.98;77.46;101472.75;5143502;27;45715;-86
2021/12/30 03:46:55;;;;;;;;;0.00;0.00;;;;;14.43;77.69;101383.50;5038681;28;45345;-86
2021/12/30 03:49:20;;;;;;;;;0.00;0.00;;;;;14.56;77.33;101387.00;5039318;28;45462;-86
2021/12/30 03:51:46;;;;;;;;;0.00;0.00;;;;;14.62;77.65;101400.13;5108870;27;45465;-86
2021/12/30 03:54:11;;;;;;;;;0.00;0.00;;;;;14.97;77.38;101456.13;5039692;28;45454;-85
2021/12/30 03:56:36;;;;;;;;;0.00;0.00;;;;;14.98;77.10;101463.16;5039172;28;45460;-86
2021/12/30 03:59:03;;;;;;;;;0.00;0.00;;;;;14.95;77.63;101457.91;5125588;27;45454;-86
2021/12/30 04:01:29;;;;;;;;;0.00;0.00;;;;;14.44;77.58;101382.63;5039743;28;45909;-86
2021/12/30 04:03:55;;;;;;;;;0.00;0.00;;;;;14.94;77.19;101464.88;5038555;28;45589;-86
2021/12/30 04:06:20;;;;;;;;;0.00;0.00;;;;;14.49;77.24;101377.41;5104430;27;48194;-86
2021/12/30 04:08:46;;;;;;;;;0.00;0.00;;;;;14.95;77.08;101452.66;5039933;28;45371;-86
2021/12/30 04:11:12;;;;;;;;;0.00;0.00;;;;;14.66;77.17;101415.00;5039840;28;45319;-86
2021/12/30 04:13:38;;;;;;;;;0.00;0.00;;;;;15.01;77.11;101462.28;5040569;28;45636;-86
2021/12/30 04:16:04;;;;;;;;;0.00;0.00;;;;;15.03;76.91;101473.63;5022089;28;47129;-86
2021/12/30 04:18:29;;;;;;;;;0.00;0.00;;;;;14.26;77.12;101338.91;5040210;28;45489;-86
2021/12/30 04:20:55;;;;;;;;;0.00;0.00;;;;;14.81;76.86;101434.25;5057797;28;45388;-86
2021/12/30 04:23:20;;;;;;;;;0.00;0.00;;;;;15.06;76.80;101471.91;5040411;28;45541;-86
2021/12/30 04:25:46;;;;;;;;;0.00;0.00;;;;;15.07;76.45;101468.38;5039352;28;46232;-86
2021/12/30 04:28:12;;;;;;;;;0.00;0.00;;;;;14.68;76.69;101386.16;5039020;28;45467;-86
2021/12/30 04:30:37;;;;;;;;;0.00;0.00;;;;;15.10;76.52;101462.25;5039347;28;45395;-87
2021/12/30 04:33:03;;;;;;;;;0.00;0.00;;;;;15.16;76.14;101470.16;5092880;27;45442;-85
2021/12/30 04:35:29;;;;;;;;;0.00;0.00;;;;;14.79;76.37;101391.44;5108290;27;46299;-85
2021/12/30 04:37:54;;;;;;;;;0.00;0.00;;;;;15.06;76.12;101434.31;5116580;27;45433;-85
2021/12/30 04:40:20;;;;;;;;;0.00;0.00;;;;;14.82;75.80;101384.47;5060307;28;45517;-85
2021/12/30 04:42:45;;;;;;;;;0.00;0.00;;;;;15.05;75.98;101429.94;5040566;27;45276;-87
2021/12/30 04:45:12;;;;;;;;;0.00;0.00;;;;;14.88;75.75;101393.22;5109479;27;47548;-87
2021/12/30 04:47:39;;;;;;;;;0.00;0.00;;;;;15.30;75.47;101469.28;5109667;27;46034;-87
2021/12/30 04:50:08;;;;;;;;;0.00;0.00;;;;;14.75;75.33;101372.19;5039590;28;45441;-86
2021/12/30 04:52:33;;;;;;;;;0.00;0.00;;;;;15.13;75.81;101438.66;5038634;28;45357;-86
2021/12/30 04:54:58;;;;;;;;;1.00;0.00;;;;;15.16;75.44;101448.31;5107200;27;48514;-86
2021/12/30 04:57:24;;;;;;;;;0.00;0.00;;;;;15.02;75.47;101430.81;5082697;27;45959;-86
2021/12/30 04:59:50;;;;;;;;;0.00;0.00;;;;;14.76;75.38;101394.06;5038299;28;45511;-86
2021/12/30 05:02:15;;;;;;;;;0.00;0.00;;;;;15.29;75.69;101480.66;5020931;28;45438;-87
2021/12/30 05:04:41;;;;;;;;;0.00;0.00;;;;;14.97;75.72;101436.94;5038090;28;46743;-87
2021/12/30 05:07:06;;;;;;;;;0.00;0.00;;;;;15.26;75.21;101494.66;5036718;28;45315;-88
2021/12/30 05:09:32;;;;;;;;;0.00;0.00;;;;;15.25;75.32;101498.13;5020785;28;45396;-87
2021/12/30 05:11:58;;;;;;;;;0.00;0.00;;;;;14.75;75.29;101418.50;5054343;28;45676;-87
2021/12/30 05:14:23;;;;;;;;;0.00;0.00;;;;;15.20;75.15;101497.25;5038208;28;45332;-88
2021/12/30 05:16:50;;;;;;;;;0.00;0.00;;;;;15.18;75.22;101502.50;5038614;28;45370;-87
2021/12/30 05:19:15;;;;;;;;;0.00;0.00;;;;;14.95;75.19;101461.38;5020595;28;45555;-87
2021/12/30 05:21:41;;;;;;;;;0.00;0.00;;;;;14.80;74.98;101440.38;5053730;28;45519;-87
2021/12/30 05:24:07;;;;;;;;;0.00;0.00;;;;;14.86;75.18;101445.66;5038553;28;45338;-87
2021/12/30 05:26:33;;;;;;;;;0.00;0.00;;;;;14.78;75.03;101435.16;5038167;28;45414;-87
2021/12/30 05:28:59;;;;;;;;;0.00;0.00;;;;;15.15;74.98;101491.13;5037765;28;45401;-87
2021/12/30 05:31:25;;;;;;;;;0.00;0.00;;;;;14.80;75.14;101445.63;5054183;27;45390;-86
2021/12/30 05:33:51;;;;;;;;;0.00;0.00;;;;;14.91;74.89;101467.50;5038289;28;45656;-86
2021/12/30 05:36:16;;;;;;;;;0.00;0.00;;;;;14.60;74.97;101409.72;5124214;27;45411;-87
2021/12/30 05:38:42;;;;;;;;;0.00;0.00;;;;;14.79;75.03;101447.38;5037929;28;45297;-87
2021/12/30 05:41:08;;;;;;;;;0.00;0.00;;;;;14.84;75.23;101460.47;5123701;27;45691;-87
2021/12/30 05:43:33;;;;;;;;;0.00;0.00;;;;;14.34;75.01;101381.72;5106756;27;47527;-87
2021/12/30 05:45:59;;;;;;;;;0.00;0.00;;;;;14.78;75.01;101489.28;5038180;28;45706;-87
2021/12/30 05:48:24;;;;;;;;;0.00;0.00;;;;;14.62;75.12;101476.13;5038175;28;45351;-86
2021/12/30 05:50:50;;;;;;;;;0.00;0.00;;;;;14.82;75.36;101512.00;5038373;28;45390;-86
2021/12/30 05:53:15;;;;;;;;;0.00;0.00;;;;;14.66;75.62;101498.84;5106924;27;46917;-86
2021/12/30 05:55:41;;;;;;;;;2.75;1.00;;;;;14.56;75.71;101492.69;5123654;27;45453;-86
2021/12/30 05:58:06;;;;;;;;;0.00;0.00;;;;;14.56;75.63;101508.41;5125801;27;45373;-86
2021/12/30 06:00:32;;;;;;;;;0.00;0.00;;;;;14.54;76.07;101514.50;5054034;28;45327;-86
2021/12/30 06:02:58;;;;;;;;;0.00;0.00;;;;;14.67;75.85;101537.25;5122153;27;47410;-86
2021/12/30 06:05:24;;;;;;;;;0.25;0.00;;;;;14.62;76.08;101536.38;5124590;27;45405;-88
2021/12/30 06:07:49;;;;;;;;;0.00;0.00;;;;;14.41;76.04;101498.75;5124259;27;45855;-88
2021/12/30 06:10:15;;;;;;;;;0.00;0.00;;;;;13.96;76.51;101443.50;5107685;27;45661;-87
2021/12/30 06:12:43;;;;;;;;;0.00;0.00;;;;;14.15;76.72;101473.28;5123517;27;48866;-86
2021/12/30 06:15:10;;;;;;;;;0.00;0.00;;;;;14.45;76.45;101533.66;5036210;28;45362;-85
2021/12/30 06:17:37;;;;;;;;;0.00;0.00;;;;;14.34;76.28;101535.34;5106242;27;45587;-87
2021/12/30 06:20:05;;;;;;;;;0.00;0.00;;;;;14.42;76.35;101550.25;5037518;27;45398;-86
2021/12/30 06:22:30;;;;;;;;;0.00;0.00;;;;;14.20;76.60;101515.19;5123798;27;47287;-86
2021/12/30 06:24:55;;;;;;;;;0.00;0.00;;;;;14.13;76.67;101500.31;5037360;28;45372;-86
2021/12/30 06:27:21;;;;;;;;;0.00;0.00;;;;;14.00;75.93;101481.91;5040361;28;45497;-86
2021/12/30 06:29:46;;;;;;;;;0.00;0.00;;;;;14.37;76.26;101543.25;5041170;28;45365;-86
2021/12/30 06:32:12;;;;;;;;;0.00;0.00;;;;;13.86;76.24;101476.59;5040918;28;46153;-87
2021/12/30 06:34:37;;;;;;;;;0.00;0.00;;;;;14.12;76.97;101522.16;5043361;28;45373;-87
2021/12/30 06:37:02;;;;;;;;;0.00;0.00;;;;;14.09;76.55;101524.75;5041450;28;45357;-86
2021/12/30 06:39:28;;;;;;;;;0.00;0.00;;;;;13.83;76.49;101486.16;5042322;28;45514;-87
2021/12/30 06:41:53;;;;;;;;;0.00;0.00;;;;;13.86;76.61;101502.78;5111621;27;47385;-86
2021/12/30 06:44:19;;;;;;;;;0.00;0.00;;;;;14.02;76.49;101529.94;5042350;27;45333;-87
2021/12/30 06:46:52;;;;;;;;;0.00;0.00;;;;;13.77;76.40;101487.88;5044400;27;45402;-86
2021/12/30 06:49:18;;;;;;;;;0.00;0.00;;;;;13.75;76.42;101484.38;5057589;27;45282;-86
2021/12/30 06:51:43;;;;;;;;;0.00;0.00;;;;;14.22;76.69;101575.44;5022595;27;46895;-86
2021/12/30 06:54:09;;;;;;;;;0.00;0.00;;;;;14.17;76.52;101565.81;5039461;28;45317;-86
2021/12/30 06:56:35;;;;;;;;;0.00;0.00;;;;;13.84;76.64;101520.19;5022076;28;45658;-86
2021/12/30 06:59:01;;;;;;;;;0.00;0.00;;;;;13.78;76.40;101517.53;5041882;28;45399;-86
2021/12/30 07:01:29;;;;;;;;;0.00;0.00;;;;;13.64;76.85;101504.34;5042480;28;45405;-87
2021/12/30 07:03:55;;;;;;;;;0.00;0.00;;;;;13.70;76.67;101512.25;5041236;28;45464;-86
2021/12/30 07:06:20;;;;;;;;;0.00;0.00;;;;;13.78;76.52;101530.59;5040712;28;45361;-86
2021/12/30 07:08:46;;;;;;;;;0.00;0.00;;;;;13.85;76.45;101542.00;5039663;28;45519;-87
2021/12/30 07:11:11;;;;;;;;;0.00;0.00;;;;;14.05;76.41;101587.53;5022137;27;48145;-86
2021/12/30 07:13:37;;;;;;;;;0.00;0.00;;;;;13.96;76.60;101570.91;5041081;28;45353;-85
2021/12/30 07:16:03;;;;;;;;;0.00;0.00;;;;;13.68;76.40;101535.78;5041207;28;45401;-86
2021/12/30 07:18:28;;;;;;;;;0.00;0.00;;;;;13.83;76.50;101569.91;5022601;28;45349;-85
2021/12/30 07:20:54;;;;;;;;;0.00;0.00;;;;;13.90;76.19;101575.22;5046522;28;46385;-85
2021/12/30 07:23:19;;;;;;;;;0.00;0.00;;;;;14.08;76.18;101594.53;5064116;28;45336;-86
2021/12/30 07:25:45;;;;;;;;;0.00;0.00;;;;;14.06;76.07;101596.28;5060584;28;45423;-85
2021/12/30 07:28:10;;;;;;;;;1.00;1.00;;;;;13.75;76.20;101535.84;5041897;28;45521;-85
2021/12/30 07:30:36;;;;;;;;;0.00;0.00;;;;;13.91;75.90;101566.47;5039634;28;45326;-85
2021/12/30 07:33:06;;;;;;;;;0.00;0.00;;;;;14.09;75.91;101591.03;5039390;28;45518;-86
2021/12/30 07:35:35;;;;;;;;;0.00;0.00;;;;;14.05;75.90;101604.97;5040169;28;45389;-87
2021/12/30 07:38:01;;;;;;;;;0.00;0.00;;;;;13.56;75.46;101509.50;5050529;27;45609;-88
2021/12/30 07:40:28;;;;;;;;;0.25;0.00;;;;;13.72;75.64;101546.28;5026029;27;47635;-88
2021/12/30 07:42:53;;;;;;;;;0.00;0.00;;;;;13.74;75.49;101557.63;5036218;28;45528;-87
2021/12/30 07:45:19;;;;;;;;;0.00;0.00;;;;;13.92;75.74;101585.69;5039081;28;45500;-88
2021/12/30 07:47:45;;;;;;;;;0.00;0.00;;;;;14.17;75.25;101618.19;5036369;28;45779;-86
2021/12/30 07:50:12;;;;;;;;;0.00;0.00;;;;;14.12;75.27;101613.78;5021828;28;47968;-87
2021/12/30 07:52:37;;;;;;;;;0.00;0.00;;;;;14.03;74.98;101607.59;5021458;28;45298;-88
2021/12/30 07:55:08;;;;;;;;;0.00;0.00;;;;;14.09;75.03;101617.22;5042613;28;45213;-86
2021/12/30 07:57:35;;;;;;;;;0.00;0.00;;;;;14.01;74.66;101603.22;5020949;28;45540;-86
2021/12/30 08:00:01;;;;;;;;;0.00;0.00;;;;;13.80;74.60;101566.41;5041118;27;47050;-81
2021/12/30 08:02:26;;;;;;;;;0.00;0.00;;;;;14.22;74.70;101636.56;5038236;27;45413;-80
2021/12/30 08:04:52;;;;;;;;;0.00;0.00;;;;;13.68;74.67;101569.81;5020422;28;45357;-81
2021/12/30 08:07:21;;;;;;;;;0.00;0.00;;;;;14.01;74.76;101625.03;5033516;28;45473;-83
2021/12/30 08:09:46;;;;;;;;;0.00;0.00;;;;;13.80;74.43;101583.84;5037951;28;45507;-81
2021/12/30 08:12:12;;;;;;;;;0.00;0.00;;;;;13.98;74.37;101616.28;5046230;27;45443;-83
2021/12/30 08:14:37;;;;;;;;;0.00;0.00;;;;;13.70;74.47;101569.81;5040909;27;45522;-80
2021/12/30 08:17:06;;;;;;;;;0.00;0.00;;;;;13.56;74.35;101548.75;5047301;28;45812;-87
2021/12/30 08:19:31;;;;;;;;;0.00;0.00;;;;;14.23;74.12;101663.59;5073185;27;47075;-83
2021/12/30 08:21:57;;;;;;;;;0.00;0.00;;;;;14.14;74.25;101667.03;5047681;28;45223;-83
2021/12/30 08:24:22;;;;;;;;;0.00;0.00;;;;;14.14;74.19;101670.53;5038362;28;45398;-82
2021/12/30 08:26:48;;;;;;;;;0.00;0.00;;;;;14.26;73.89;101687.19;5036553;28;45353;-84
2021/12/30 08:29:13;;;;;;;;;0.00;0.00;;;;;14.10;74.09;101665.25;5036858;27;46309;-83
2021/12/30 08:31:38;;;;;;;;;0.00;0.00;;;;;14.02;74.00;101657.31;5106419;27;45234;-83
2021/12/30 08:34:05;;;;;;;;;0.00;0.00;;;;;13.88;74.24;101636.25;5035907;27;46099;-83
2021/12/30 08:36:31;;;;;;;;;0.00;0.00;;;;;13.97;74.36;101646.81;5036643;28;45632;-82
2021/12/30 08:38:57;;;;;;;;;0.00;0.00;;;;;14.27;74.37;101702.06;5037862;27;46862;-86
2021/12/30 08:41:23;;;;;;;;;0.00;0.00;;;;;14.29;74.16;101710.78;5035111;28;45510;-83
2021/12/30 08:43:48;;;;;;;;;0.00;0.00;;;;;14.29;73.80;101713.41;5038250;28;45439;-83
2021/12/30 08:46:14;;;;;;;;;0.00;0.00;;;;;13.73;74.13;101618.66;5040588;27;45708;-82
2021/12/30 08:48:40;;;;;;;;;0.50;0.00;;;;;14.22;74.02;101722.97;5027924;28;46399;-84
2021/12/30 08:51:06;;;;;;;;;0.00;0.00;;;;;13.53;74.13;101601.03;5031046;28;45406;-81
2021/12/30 08:53:32;;;;;;;;;0.00;0.00;;;;;14.05;74.04;101692.25;5040283;27;45359;-83
2021/12/30 08:55:57;;;;;;;;;0.25;0.00;;;;;14.27;74.17;101718.63;5032139;28;45724;-81
2021/12/30 08:58:23;;;;;;;;;0.00;0.00;;;;;14.14;74.06;101701.06;5035924;28;46024;-84
2021/12/30 09:00:49;;;;;;;;;0.00;0.00;;;;;13.77;74.08;101630.91;5036589;28;45739;-84
2021/12/30 09:03:16;;;;;;;;;0.00;0.00;;;;;13.83;74.18;101636.22;5038550;28;45683;-85
2021/12/30 09:05:44;;;;;;;;;0.00;0.00;;;;;14.11;73.81;101680.06;5043452;28;45526;-86
2021/12/30 09:08:09;;;;;;;;;0.00;0.00;;;;;14.32;73.95;101710.81;5036844;28;46372;-86
2021/12/30 09:10:40;;;;;;;;;0.00;0.00;;;;;14.16;73.98;101684.53;5035987;28;45463;-87
2021/12/30 09:13:08;;;;;;;;;0.00;0.00;;;;;14.31;73.92;101715.19;5018539;28;45452;-87
2021/12/30 09:15:34;;;;;;;;;0.00;0.00;;;;;13.79;74.01;101651.00;5037558;28;45561;-87
2021/12/30 09:18:01;;;;;;;;;0.00;0.00;;;;;13.80;73.99;101644.03;5037740;27;47765;-85
2021/12/30 09:20:27;;;;;;;;;0.00;0.00;;;;;14.05;73.95;101696.63;5057515;27;45422;-87
2021/12/30 09:22:54;;;;;;;;;0.00;0.00;;;;;14.26;74.11;101732.59;5091276;27;45519;-88
2021/12/30 09:25:23;;;;;;;;;0.00;0.00;;;;;14.23;74.40;101737.81;5108382;27;45429;-87
2021/12/30 09:27:50;;;;;;;;;0.00;0.00;;;;;13.65;73.90;101623.81;5124848;27;47458;-83
2021/12/30 09:30:16;;;;;;;;;0.00;0.00;;;;;14.13;74.03;101694.97;5038471;28;45354;-88
2021/12/30 09:32:46;;;;;;;;;0.00;0.00;;;;;13.72;73.91;101630.00;5038880;28;45342;-83
2021/12/30 09:35:12;;;;;;;;;0.00;0.00;;;;;14.38;74.26;101736.19;5040133;28;45507;-87
2021/12/30 09:37:39;;;;;;;;;0.75;0.00;;;;;14.37;74.07;101730.09;5087634;27;47257;-84
2021/12/30 09:40:08;;;;;;;;;1.25;0.25;;;;;13.90;73.93;101661.59;5038701;28;45495;-86
2021/12/30 09:42:34;;;;;;;;;0.00;0.00;;;;;13.93;73.89;101665.97;5038620;28;45363;-87
2021/12/30 09:44:59;;;;;;;;;1.00;0.00;;;;;14.31;73.90;101723.03;5038440;28;45376;-84
2021/12/30 09:47:25;;;;;;;;;0.75;0.00;;;;;14.28;73.49;101698.56;5040785;28;45373;-84
2021/12/30 09:49:52;;;;;;;;;7.00;2.00;;;;;14.06;73.80;101677.44;5036405;27;45300;-84
2021/12/30 09:52:18;;;;;;;;;3.00;0.00;;;;;13.87;73.41;101651.06;5038065;28;44960;-86
2021/12/30 09:54:43;;;;;;;;;0.00;0.00;;;;;14.36;73.61;101736.19;5037955;28;45563;-83
2021/12/30 09:57:09;;;;;;;;;0.00;0.00;;;;;14.52;73.60;101752.91;5037721;28;46606;-84
2021/12/30 09:59:34;;;;;;;;;0.00;0.00;;;;;14.18;73.45;101689.78;5038529;28;45336;-83
2021/12/30 10:02:00;;;;;;;;;0.00;0.00;;;;;14.11;73.42;101685.31;5040327;28;45422;-84
2021/12/30 10:04:31;;;;;;;;;0.00;0.00;;;;;14.08;73.22;101664.38;5041463;28;46104;-84
2021/12/30 10:07:01;;;;;;;;;0.00;0.00;;;;;14.30;73.08;101699.44;5040513;28;46350;-82
2021/12/30 10:09:50;;;;;;;;;0.00;0.00;;;;;14.55;72.97;101742.44;5093940;27;45370;-82
2021/12/30 10:12:44;;;;;;;;;0.00;0.00;;;;;14.53;73.12;101732.81;5079171;27;45399;-83
2021/12/30 10:15:09;;;;;;;;;0.00;0.00;;;;;14.34;73.21;101690.78;5089475;27;45801;-82
2021/12/30 10:17:35;;;;;;;;;0.00;0.00;;;;;14.86;72.77;101762.81;5127791;27;47169;-82
2021/12/30 10:20:21;;;;;;;;;0.00;0.00;;;;;14.90;72.79;101768.94;5041084;28;45771;-82
2021/12/30 10:22:47;;;;;;;;;1.00;0.00;;;;;14.75;72.44;101733.88;5040960;27;45521;-82
2021/12/30 10:25:40;;;;;;;;;0.00;0.00;;;;;14.69;72.79;101733.81;5040997;28;45510;-82
2021/12/30 10:28:23;;;;;;;;;0.00;0.00;;;;;14.78;72.43;101754.00;5063279;27;47238;-81
2021/12/30 10:31:14;;;;;;;;;0.00;0.00;;;;;14.88;72.83;101771.56;5041044;28;45379;-82
2021/12/30 10:34:07;;;;;;;;;0.00;0.00;;;;;14.83;72.70;101749.69;5033430;27;45469;-83
2021/12/30 10:36:37;;;;;;;;;0.00;0.00;;;;;15.00;72.71;101767.25;5029753;28;45338;-82
2021/12/30 10:39:21;;;;;;;;;0.00;0.00;;;;;14.92;72.35;101759.38;5021903;28;46847;-83
2021/12/30 10:41:49;;;;;;;;;0.00;0.00;;;;;14.87;72.53;101756.72;5038462;28;45594;-81
2021/12/30 10:44:15;;;;;;;;;1.00;1.00;;;;;14.89;72.30;101760.19;5041194;28;45350;-81
2021/12/30 10:46:41;;;;;;;;;1.00;0.00;;;;;14.26;72.67;101659.28;5040906;28;45405;-82
2021/12/30 10:49:10;;;;;;;;;0.00;0.00;;;;;14.76;72.59;101732.13;5039372;28;46422;-82
2021/12/30 10:51:42;;;;;;;;;0.00;0.00;;;;;14.91;72.38;101758.47;5046512;28;45474;-82
2021/12/30 10:54:15;;;;;;;;;0.00;0.00;;;;;14.61;72.76;101707.56;5037472;28;45386;-83
2021/12/30 10:57:01;;;;;;;;;0.00;0.00;;;;;14.78;72.42;101728.69;5039556;27;45340;-84
2021/12/30 10:59:32;;;;;;;;;0.00;0.00;;;;;14.91;72.21;101749.72;5040075;28;45415;-82
2021/12/30 11:02:00;;;;;;;;;0.00;0.00;;;;;14.88;72.62;101731.38;5022029;28;45382;-80
2021/12/30 11:04:38;;;;;;;;;0.00;0.00;;;;;14.79;72.44;101712.09;5038500;27;45427;-82
2021/12/30 11:07:05;;;;;;;;;0.00;0.00;;;;;15.17;72.29;101757.78;5039618;28;45483;-80
2021/12/30 11:09:31;;;;;;;;;0.00;0.00;;;;;15.17;72.08;101746.41;5038850;28;46417;-81
2021/12/30 11:12:00;;;;;;;;;0.50;0.00;;;;;14.98;72.22;101717.47;5020814;28;45647;-81
2021/12/30 11:14:31;;;;;;;;;0.00;0.00;;;;;15.09;72.27;101743.72;5039618;28;45350;-83
2021/12/30 11:17:02;;;;;;;;;0.00;0.00;;;;;15.27;72.36;101763.06;5039457;28;45353;-81
2021/12/30 11:20:02;;;;;;;;;2.00;1.00;;;;;14.82;72.12;101683.28;5038555;28;46246;-81
2021/12/30 11:22:31;;;;;;;;;0.00;0.00;;;;;15.26;71.55;101775.31;5026389;28;45499;-81
2021/12/30 11:25:00;;;;;;;;;0.00;0.00;;;;;15.25;71.84;101770.06;5047020;28;45584;-81